Weerspreuk van de dag: Maakt de spin in 't web een scheur, dan klopt weldra de stormwind aan de deur.
Het weer levert geen direct gevaar op.    Er zijn geen waarschuwingen afgegeven.

Onweer radar Meer informatie blitzortung!


Regen radar Meer informatie rain snow radar


Bekijk deze sites ook eens:

FPL Automotive (TIP)

Autostekkers.nl (TIP)

Over Luyksgestel

De Kempen, mijn omgeving

BOL.com

Weerstation Noordbergum

Inktweb

Weerstation Hapert

Weerstation Hoogeloon

Weerstation Son&Breugel

Weerstation Castaert

Nieuw horloge

Weerstation Tilburg Reeshof

Weerstation Scheulder

Weerverwachting Samos

Samos actueel

Weerwoord (forum)

Griekenlandforum

Vakantie naar Samos

Winterzon

Canon

Wolven in Nederland



METAR rapporten vliegvelden

   
EBAW - Antwerp
Gewijzigd: 27-11-2020 14:50
Nevel, Grotendeels bewolkt  
Nevel, Grotendeels bewolkt  
   Wind: OZO 7.4 km/h
Wind: OZO 7.4 km/h
Temperatuur: 8°C
Voelt als: 7°C
Dauwpunt: 6°C
Vochtigheid: 87%
Barometer: 1018 hPa
Bewolking: Grotendeels bewolkt
Zicht: 5 km
Bewolking: Grotendeels bewolkt 800 ft
EBAW 271350Z 11004KT 4700 BR BKN008 08/06 Q1018 BECMG 6000 NSW BKN011
EBLG - Liège
Gewijzigd: 27-11-2020 14:50
Helder  
Helder  
   Wind: Oosten 7.4 km/h
Wind: Oosten 7.4 km/h
Temperatuur: 9°C
Voelt als: 8°C
Dauwpunt: 5°C
Vochtigheid: 76%
Barometer: 1018 hPa
Zicht: meer dan 10 km
Bewolking: Helder
EBLG 271350Z 08004KT 050V160 CAVOK 09/05 Q1018 NOSIG
EBCV - Mons/Bergen
Gewijzigd: 27-11-2020 14:25
Grotendeels bewolkt  
Grotendeels bewolkt  
   Wind: Oosten 7.4 km/h
Wind: Oosten 7.4 km/h
Temperatuur: 7°C
Voelt als: 6°C
Dauwpunt: 6°C
Vochtigheid: 93%
Barometer: 1018 hPa
Bewolking: Grotendeels bewolkt
Bewolking: Grotendeels bewolkt 9400 ft
EBCV 271325Z AUTO 09004KT //// BKN094/// 07/06 Q1018 BLU
EHBK - Maastricht
Gewijzigd: 27-11-2020 14:55
Helder  
Helder  
   Wind: ONO 5.6 km/h
Wind: ONO 5.6 km/h
Temperatuur: 9°C
Voelt als: 8°C
Dauwpunt: 6°C
Vochtigheid: 82%
Barometer: 1018 hPa
Bewolking: Helder
Zicht: meer dan 10 km
Bewolking: Helder
EHBK 271355Z AUTO 07003KT 010V110 9999 NCD 09/06 Q1018 NOSIG
ELLX - Luxemburg
Gewijzigd: 27-11-2020 14:50
Nevel, Licht bewolkt  
Nevel, Licht bewolkt  
   Wind: ONO 14.8 km/h
Wind: ONO 14.8 km/h
Temperatuur: 4°C
Voelt als: 1°C
Dauwpunt: 2°C
Vochtigheid: 87%
Barometer: 1018 hPa
Bewolking: Licht bewolkt
Zicht: 4 km
Bewolking: Licht bewolkt
ELLX 271350Z 06008KT 4000 R06/P2000N BR FEW000 04/02 Q1018 TEMPO 1200 BCFG
EBOS - Oostende
Gewijzigd: 27-11-2020 14:50
Nevel, Grotendeels bewolkt  
Nevel, Grotendeels bewolkt  
   Wind: Oosten 14.8 km/h
Wind: Oosten 14.8 km/h
Temperatuur: 9°C
Voelt als: 7°C
Dauwpunt: 7°C
Vochtigheid: 87%
Barometer: 1018 hPa
Bewolking: Grotendeels bewolkt
Zicht: 5 km
Bewolking: Grotendeels bewolkt 900 ft
EBOS 271350Z 08008KT 5000 BR BKN009 09/07 Q1018 TEMPO 3500 BR SCT009

Script ontwikkeld door  Saratoga-weather.org Aangepast voor de template door  Weerstation Leuven

U vindt ons ook hier:

Het Weer Aktueel

UK Metoffice

European Weather Network

Weather Underground

AWEKAS